sensor_id;sensor_type;location;lat;lon;timestamp;temperature;humidity
11093;DHT22;5600;50.864;6.102;2022-11-20T00:02:13;3.70;99.90
11093;DHT22;5600;50.864;6.102;2022-11-20T00:05:13;3.80;99.90
11093;DHT22;5600;50.864;6.102;2022-11-20T00:08:14;3.80;99.90
11093;DHT22;5600;50.864;6.102;2022-11-20T00:11:20;3.80;99.90
11093;DHT22;5600;50.864;6.102;2022-11-20T00:14:21;4.00;99.90
11093;DHT22;5600;50.864;6.102;2022-11-20T00:17:21;3.90;99.90
11093;DHT22;5600;50.864;6.102;2022-11-20T00:20:22;3.90;99.90
11093;DHT22;5600;50.864;6.102;2022-11-20T00:23:22;4.00;99.90
11093;DHT22;5600;50.864;6.102;2022-11-20T00:26:25;4.00;99.90
11093;DHT22;5600;50.864;6.102;2022-11-20T00:29:26;4.00;99.90
11093;DHT22;5600;50.864;6.102;2022-11-20T00:32:27;4.00;99.90
11093;DHT22;5600;50.864;6.102;2022-11-20T00:35:27;4.00;99.90
11093;DHT22;5600;50.864;6.102;2022-11-20T00:38:28;4.00;99.90
11093;DHT22;5600;50.864;6.102;2022-11-20T00:41:29;4.00;99.90
11093;DHT22;5600;50.864;6.102;2022-11-20T00:44:30;3.90;99.90
11093;DHT22;5600;50.864;6.102;2022-11-20T00:47:30;4.00;99.90
11093;DHT22;5600;50.864;6.102;2022-11-20T00:50:31;4.10;99.90
11093;DHT22;5600;50.864;6.102;2022-11-20T00:53:31;4.10;99.90
11093;DHT22;5600;50.864;6.102;2022-11-20T00:56:32;4.00;99.90
11093;DHT22;5600;50.864;6.102;2022-11-20T00:59:32;4.00;99.90
11093;DHT22;5600;50.864;6.102;2022-11-20T01:02:33;3.90;99.90
11093;DHT22;5600;50.864;6.102;2022-11-20T01:05:34;3.90;99.90
11093;DHT22;5600;50.864;6.102;2022-11-20T01:08:36;3.90;99.90
11093;DHT22;5600;50.864;6.102;2022-11-20T01:11:39;3.90;99.90
11093;DHT22;5600;50.864;6.102;2022-11-20T01:14:40;4.00;99.90
11093;DHT22;5600;50.864;6.102;2022-11-20T01:17:41;4.00;99.90
11093;DHT22;5600;50.864;6.102;2022-11-20T01:20:41;3.90;99.90
11093;DHT22;5600;50.864;6.102;2022-11-20T01:23:43;3.90;99.90
11093;DHT22;5600;50.864;6.102;2022-11-20T01:26:46;3.80;99.90
11093;DHT22;5600;50.864;6.102;2022-11-20T01:29:47;4.00;99.90
11093;DHT22;5600;50.864;6.102;2022-11-20T01:32:47;4.00;99.90
11093;DHT22;5600;50.864;6.102;2022-11-20T01:35:48;4.00;99.90
11093;DHT22;5600;50.864;6.102;2022-11-20T01:38:53;4.00;99.90
11093;DHT22;5600;50.864;6.102;2022-11-20T01:41:55;4.10;99.90
11093;DHT22;5600;50.864;6.102;2022-11-20T01:52:13;4.10;99.90
11093;DHT22;5600;50.864;6.102;2022-11-20T01:55:25;4.20;99.90
11093;DHT22;5600;50.864;6.102;2022-11-20T01:58:32;4.10;99.90
11093;DHT22;5600;50.864;6.102;2022-11-20T02:01:34;4.10;99.90
11093;DHT22;5600;50.864;6.102;2022-11-20T02:04:35;4.10;99.90
11093;DHT22;5600;50.864;6.102;2022-11-20T02:07:36;4.10;99.90
11093;DHT22;5600;50.864;6.102;2022-11-20T02:10:37;4.10;99.90
11093;DHT22;5600;50.864;6.102;2022-11-20T02:13:38;4.10;99.90
11093;DHT22;5600;50.864;6.102;2022-11-20T02:16:47;4.00;99.90
11093;DHT22;5600;50.864;6.102;2022-11-20T02:19:48;4.00;99.90
11093;DHT22;5600;50.864;6.102;2022-11-20T02:22:55;3.90;99.90
11093;DHT22;5600;50.864;6.102;2022-11-20T02:25:57;3.90;99.90
11093;DHT22;5600;50.864;6.102;2022-11-20T02:28:59;3.80;99.90
11093;DHT22;5600;50.864;6.102;2022-11-20T02:32:02;3.80;99.90
11093;DHT22;5600;50.864;6.102;2022-11-20T02:38:08;3.80;99.90
11093;DHT22;5600;50.864;6.102;2022-11-20T02:41:09;3.80;99.90
11093;DHT22;5600;50.864;6.102;2022-11-20T02:44:10;3.80;99.90
11093;DHT22;5600;50.864;6.102;2022-11-20T02:47:11;3.80;99.90
11093;DHT22;5600;50.864;6.102;2022-11-20T02:50:12;3.70;99.90
11093;DHT22;5600;50.864;6.102;2022-11-20T02:53:12;3.70;99.90
11093;DHT22;5600;50.864;6.102;2022-11-20T02:56:13;3.70;99.90
11093;DHT22;5600;50.864;6.102;2022-11-20T02:59:13;4.10;99.90
11093;DHT22;5600;50.864;6.102;2022-11-20T03:02:14;3.90;99.90
11093;DHT22;5600;50.864;6.102;2022-11-20T03:05:15;4.10;99.90
11093;DHT22;5600;50.864;6.102;2022-11-20T03:08:15;4.20;99.90
11093;DHT22;5600;50.864;6.102;2022-11-20T03:11:16;4.30;99.90
11093;DHT22;5600;50.864;6.102;2022-11-20T03:14:17;4.30;99.90
11093;DHT22;5600;50.864;6.102;2022-11-20T03:17:19;4.30;99.90
11093;DHT22;5600;50.864;6.102;2022-11-20T03:20:20;4.30;99.90
11093;DHT22;5600;50.864;6.102;2022-11-20T03:23:20;4.30;99.90
11093;DHT22;5600;50.864;6.102;2022-11-20T03:26:23;4.40;99.90
11093;DHT22;5600;50.864;6.102;2022-11-20T03:29:24;4.40;99.90
11093;DHT22;5600;50.864;6.102;2022-11-20T03:32:25;4.40;99.90
11093;DHT22;5600;50.864;6.102;2022-11-20T03:35:26;4.50;99.90
11093;DHT22;5600;50.864;6.102;2022-11-20T03:38:29;4.50;99.90
11093;DHT22;5600;50.864;6.102;2022-11-20T03:41:35;4.50;99.90
11093;DHT22;5600;50.864;6.102;2022-11-20T03:44:36;4.50;99.90
11093;DHT22;5600;50.864;6.102;2022-11-20T03:47:36;4.50;99.90
11093;DHT22;5600;50.864;6.102;2022-11-20T03:50:37;4.50;99.90
11093;DHT22;5600;50.864;6.102;2022-11-20T03:53:39;4.40;99.90
11093;DHT22;5600;50.864;6.102;2022-11-20T03:56:40;4.40;99.90
11093;DHT22;5600;50.864;6.102;2022-11-20T03:59:40;4.50;99.90
11093;DHT22;5600;50.864;6.102;2022-11-20T04:02:41;4.50;99.90
11093;DHT22;5600;50.864;6.102;2022-11-20T04:05:42;4.50;99.90
11093;DHT22;5600;50.864;6.102;2022-11-20T04:08:42;4.50;99.90
11093;DHT22;5600;50.864;6.102;2022-11-20T04:11:43;4.50;99.90
11093;DHT22;5600;50.864;6.102;2022-11-20T04:14:43;4.40;99.90
11093;DHT22;5600;50.864;6.102;2022-11-20T04:17:44;4.40;99.90
11093;DHT22;5600;50.864;6.102;2022-11-20T04:20:45;4.40;99.90
11093;DHT22;5600;50.864;6.102;2022-11-20T04:23:45;4.30;99.90
11093;DHT22;5600;50.864;6.102;2022-11-20T04:26:46;4.30;99.90
11093;DHT22;5600;50.864;6.102;2022-11-20T04:29:47;4.30;99.90
11093;DHT22;5600;50.864;6.102;2022-11-20T04:32:47;4.20;99.90
11093;DHT22;5600;50.864;6.102;2022-11-20T04:35:48;4.20;99.90
11093;DHT22;5600;50.864;6.102;2022-11-20T04:38:56;4.20;99.90
11093;DHT22;5600;50.864;6.102;2022-11-20T04:41:57;4.10;99.90
11093;DHT22;5600;50.864;6.102;2022-11-20T04:45:17;4.10;99.90
11093;DHT22;5600;50.864;6.102;2022-11-20T04:48:17;4.00;99.90
11093;DHT22;5600;50.864;6.102;2022-11-20T04:51:18;4.10;99.90
11093;DHT22;5600;50.864;6.102;2022-11-20T04:54:18;4.00;99.90
11093;DHT22;5600;50.864;6.102;2022-11-20T04:57:20;4.00;99.90
11093;DHT22;5600;50.864;6.102;2022-11-20T05:00:21;4.00;99.90
11093;DHT22;5600;50.864;6.102;2022-11-20T05:03:22;4.00;99.90
11093;DHT22;5600;50.864;6.102;2022-11-20T05:06:22;4.10;99.90
11093;DHT22;5600;50.864;6.102;2022-11-20T05:09:23;3.90;99.90
11093;DHT22;5600;50.864;6.102;2022-11-20T05:12:24;3.80;99.90
11093;DHT22;5600;50.864;6.102;2022-11-20T05:15:24;3.90;99.90
11093;DHT22;5600;50.864;6.102;2022-11-20T05:18:25;3.80;99.90
11093;DHT22;5600;50.864;6.102;2022-11-20T05:21:25;3.80;99.90
11093;DHT22;5600;50.864;6.102;2022-11-20T05:24:26;3.80;99.90
11093;DHT22;5600;50.864;6.102;2022-11-20T05:27:27;3.80;99.90
11093;DHT22;5600;50.864;6.102;2022-11-20T05:30:27;3.80;99.90
11093;DHT22;5600;50.864;6.102;2022-11-20T05:33:28;3.80;99.90
11093;DHT22;5600;50.864;6.102;2022-11-20T05:36:29;3.90;99.90
11093;DHT22;5600;50.864;6.102;2022-11-20T05:39:30;3.90;99.90
11093;DHT22;5600;50.864;6.102;2022-11-20T05:42:31;3.90;99.90
11093;DHT22;5600;50.864;6.102;2022-11-20T05:45:32;4.00;99.90
11093;DHT22;5600;50.864;6.102;2022-11-20T05:48:33;4.00;99.90
11093;DHT22;5600;50.864;6.102;2022-11-20T05:51:34;4.00;99.90
11093;DHT22;5600;50.864;6.102;2022-11-20T05:54:34;3.90;99.90
11093;DHT22;5600;50.864;6.102;2022-11-20T05:57:35;3.80;99.90
11093;DHT22;5600;50.864;6.102;2022-11-20T06:00:36;3.40;99.90
11093;DHT22;5600;50.864;6.102;2022-11-20T06:03:38;3.80;99.90
11093;DHT22;5600;50.864;6.102;2022-11-20T06:06:39;3.70;99.90
11093;DHT22;5600;50.864;6.102;2022-11-20T06:09:39;3.70;99.90
11093;DHT22;5600;50.864;6.102;2022-11-20T06:12:40;3.70;99.90
11093;DHT22;5600;50.864;6.102;2022-11-20T06:15:41;3.70;99.90
11093;DHT22;5600;50.864;6.102;2022-11-20T06:18:41;3.80;99.90
11093;DHT22;5600;50.864;6.102;2022-11-20T06:21:42;3.70;99.90
11093;DHT22;5600;50.864;6.102;2022-11-20T06:24:42;3.70;99.90
11093;DHT22;5600;50.864;6.102;2022-11-20T06:27:43;3.70;99.90
11093;DHT22;5600;50.864;6.102;2022-11-20T06:30:47;3.70;99.90
11093;DHT22;5600;50.864;6.102;2022-11-20T06:33:48;3.80;99.90
11093;DHT22;5600;50.864;6.102;2022-11-20T06:36:48;3.70;99.90
11093;DHT22;5600;50.864;6.102;2022-11-20T06:39:49;3.80;99.90
11093;DHT22;5600;50.864;6.102;2022-11-20T06:42:50;3.70;99.90
11093;DHT22;5600;50.864;6.102;2022-11-20T06:45:54;3.70;99.90
11093;DHT22;5600;50.864;6.102;2022-11-20T06:48:55;3.80;99.90
11093;DHT22;5600;50.864;6.102;2022-11-20T06:51:55;3.80;99.90
11093;DHT22;5600;50.864;6.102;2022-11-20T06:54:56;3.70;99.90
11093;DHT22;5600;50.864;6.102;2022-11-20T06:57:57;3.70;99.90
11093;DHT22;5600;50.864;6.102;2022-11-20T07:00:59;3.70;99.90
11093;DHT22;5600;50.864;6.102;2022-11-20T07:03:59;3.80;99.90
11093;DHT22;5600;50.864;6.102;2022-11-20T07:07:00;3.80;99.90
11093;DHT22;5600;50.864;6.102;2022-11-20T07:10:02;3.80;99.90
11093;DHT22;5600;50.864;6.102;2022-11-20T07:13:03;3.80;99.90
11093;DHT22;5600;50.864;6.102;2022-11-20T07:16:06;3.90;99.90
11093;DHT22;5600;50.864;6.102;2022-11-20T07:19:08;3.90;99.90
11093;DHT22;5600;50.864;6.102;2022-11-20T07:22:08;3.90;99.90
11093;DHT22;5600;50.864;6.102;2022-11-20T07:25:10;4.00;99.90
11093;DHT22;5600;50.864;6.102;2022-11-20T07:28:11;4.00;99.90
11093;DHT22;5600;50.864;6.102;2022-11-20T07:31:12;4.00;99.90
11093;DHT22;5600;50.864;6.102;2022-11-20T07:34:13;4.00;99.90
11093;DHT22;5600;50.864;6.102;2022-11-20T07:37:14;4.00;99.90
11093;DHT22;5600;50.864;6.102;2022-11-20T07:40:16;4.00;99.90
11093;DHT22;5600;50.864;6.102;2022-11-20T07:43:17;4.10;99.90
11093;DHT22;5600;50.864;6.102;2022-11-20T07:46:17;4.10;99.90
11093;DHT22;5600;50.864;6.102;2022-11-20T07:49:18;4.00;99.90
11093;DHT22;5600;50.864;6.102;2022-11-20T07:52:18;4.10;99.90
11093;DHT22;5600;50.864;6.102;2022-11-20T07:55:19;4.10;99.90
11093;DHT22;5600;50.864;6.102;2022-11-20T07:58:20;4.10;99.90
11093;DHT22;5600;50.864;6.102;2022-11-20T08:01:21;4.10;99.90
11093;DHT22;5600;50.864;6.102;2022-11-20T08:04:22;4.10;99.90
11093;DHT22;5600;50.864;6.102;2022-11-20T08:07:23;4.10;99.90
11093;DHT22;5600;50.864;6.102;2022-11-20T08:10:24;4.10;99.90
11093;DHT22;5600;50.864;6.102;2022-11-20T08:13:25;4.10;99.90
11093;DHT22;5600;50.864;6.102;2022-11-20T08:16:49;4.10;99.90
11093;DHT22;5600;50.864;6.102;2022-11-20T08:19:50;4.10;99.90
11093;DHT22;5600;50.864;6.102;2022-11-20T08:22:50;4.10;99.90
11093;DHT22;5600;50.864;6.102;2022-11-20T08:25:51;4.10;99.90
11093;DHT22;5600;50.864;6.102;2022-11-20T08:28:56;4.20;99.90
11093;DHT22;5600;50.864;6.102;2022-11-20T08:31:57;4.30;99.90
11093;DHT22;5600;50.864;6.102;2022-11-20T08:34:57;4.30;99.90
11093;DHT22;5600;50.864;6.102;2022-11-20T08:37:58;4.40;99.90
11093;DHT22;5600;50.864;6.102;2022-11-20T08:40:59;4.40;99.90
11093;DHT22;5600;50.864;6.102;2022-11-20T08:44:19;4.30;99.90
11093;DHT22;5600;50.864;6.102;2022-11-20T08:47:20;4.40;99.90
11093;DHT22;5600;50.864;6.102;2022-11-20T08:50:20;4.50;99.90
11093;DHT22;5600;50.864;6.102;2022-11-20T08:53:21;4.60;99.90
11093;DHT22;5600;50.864;6.102;2022-11-20T08:56:22;4.70;99.90
11093;DHT22;5600;50.864;6.102;2022-11-20T08:59:22;4.90;99.90
11093;DHT22;5600;50.864;6.102;2022-11-20T09:02:23;4.90;99.90
11093;DHT22;5600;50.864;6.102;2022-11-20T09:05:24;5.00;99.90
11093;DHT22;5600;50.864;6.102;2022-11-20T09:08:25;5.00;99.90
11093;DHT22;5600;50.864;6.102;2022-11-20T09:11:25;5.00;99.90
11093;DHT22;5600;50.864;6.102;2022-11-20T09:14:26;5.10;99.90
11093;DHT22;5600;50.864;6.102;2022-11-20T09:17:29;5.20;99.90
11093;DHT22;5600;50.864;6.102;2022-11-20T09:20:30;5.20;99.90
11093;DHT22;5600;50.864;6.102;2022-11-20T09:23:32;5.30;99.90
11093;DHT22;5600;50.864;6.102;2022-11-20T09:26:34;5.30;99.90
11093;DHT22;5600;50.864;6.102;2022-11-20T09:29:34;5.30;99.90
11093;DHT22;5600;50.864;6.102;2022-11-20T09:32:35;5.40;99.90
11093;DHT22;5600;50.864;6.102;2022-11-20T09:35:36;5.40;99.90
11093;DHT22;5600;50.864;6.102;2022-11-20T09:38:36;5.40;99.90
11093;DHT22;5600;50.864;6.102;2022-11-20T09:45:12;5.40;99.90
11093;DHT22;5600;50.864;6.102;2022-11-20T09:52:05;5.50;99.90
11093;DHT22;5600;50.864;6.102;2022-11-20T09:55:13;5.60;99.90
11093;DHT22;5600;50.864;6.102;2022-11-20T09:58:39;5.60;99.90
11093;DHT22;5600;50.864;6.102;2022-11-20T10:01:40;5.80;99.90
11093;DHT22;5600;50.864;6.102;2022-11-20T10:05:02;5.80;99.90
11093;DHT22;5600;50.864;6.102;2022-11-20T10:08:30;5.90;99.90
11093;DHT22;5600;50.864;6.102;2022-11-20T10:18:44;6.10;99.90
11093;DHT22;5600;50.864;6.102;2022-11-20T10:22:22;6.20;99.90
11093;DHT22;5600;50.864;6.102;2022-11-20T10:25:44;6.10;99.90
11093;DHT22;5600;50.864;6.102;2022-11-20T10:29:12;6.00;99.90
11093;DHT22;5600;50.864;6.102;2022-11-20T10:32:16;6.10;99.90
11093;DHT22;5600;50.864;6.102;2022-11-20T10:35:28;6.10;99.90
11093;DHT22;5600;50.864;6.102;2022-11-20T10:38:40;6.20;99.90
11093;DHT22;5600;50.864;6.102;2022-11-20T10:41:46;6.20;99.90
11093;DHT22;5600;50.864;6.102;2022-11-20T10:44:59;6.10;99.90
11093;DHT22;5600;50.864;6.102;2022-11-20T10:58:30;6.20;99.90
11093;DHT22;5600;50.864;6.102;2022-11-20T11:01:40;6.30;99.90
11093;DHT22;5600;50.864;6.102;2022-11-20T11:04:45;6.40;99.90
11093;DHT22;5600;50.864;6.102;2022-11-20T11:07:49;6.40;99.90
11093;DHT22;5600;50.864;6.102;2022-11-20T11:10:53;6.40;99.90
11093;DHT22;5600;50.864;6.102;2022-11-20T11:14:09;6.50;99.90
11093;DHT22;5600;50.864;6.102;2022-11-20T11:20:22;6.60;99.90
11093;DHT22;5600;50.864;6.102;2022-11-20T11:23:41;6.60;99.90
11093;DHT22;5600;50.864;6.102;2022-11-20T11:27:02;6.70;99.90
11093;DHT22;5600;50.864;6.102;2022-11-20T11:30:16;6.80;99.90
11093;DHT22;5600;50.864;6.102;2022-11-20T11:33:25;6.90;99.90
11093;DHT22;5600;50.864;6.102;2022-11-20T11:36:26;7.00;99.90
11093;DHT22;5600;50.864;6.102;2022-11-20T11:39:28;7.10;99.90
11093;DHT22;5600;50.864;6.102;2022-11-20T11:42:30;7.20;99.90
11093;DHT22;5600;50.864;6.102;2022-11-20T11:45:31;7.20;99.90
11093;DHT22;5600;50.864;6.102;2022-11-20T11:48:32;7.30;99.90
11093;DHT22;5600;50.864;6.102;2022-11-20T11:51:56;7.30;99.90
11093;DHT22;5600;50.864;6.102;2022-11-20T11:55:01;7.30;99.90
11093;DHT22;5600;50.864;6.102;2022-11-20T11:58:45;7.40;99.90
11093;DHT22;5600;50.864;6.102;2022-11-20T12:01:57;7.40;99.90
11093;DHT22;5600;50.864;6.102;2022-11-20T12:05:09;7.50;99.90
11093;DHT22;5600;50.864;6.102;2022-11-20T12:08:23;7.60;99.90
11093;DHT22;5600;50.864;6.102;2022-11-20T12:11:45;7.70;99.90
11093;DHT22;5600;50.864;6.102;2022-11-20T12:14:48;7.80;99.90
11093;DHT22;5600;50.864;6.102;2022-11-20T12:17:51;7.80;99.90
11093;DHT22;5600;50.864;6.102;2022-11-20T12:21:07;7.90;99.90
11093;DHT22;5600;50.864;6.102;2022-11-20T12:24:34;8.20;99.90
11093;DHT22;5600;50.864;6.102;2022-11-20T12:28:47;8.30;99.90
11093;DHT22;5600;50.864;6.102;2022-11-20T12:34:45;8.60;99.90
11093;DHT22;5600;50.864;6.102;2022-11-20T12:44:44;8.80;99.90
11093;DHT22;5600;50.864;6.102;2022-11-20T12:51:37;8.90;99.90
11093;DHT22;5600;50.864;6.102;2022-11-20T12:55:07;8.90;99.90
11093;DHT22;5600;50.864;6.102;2022-11-20T12:58:12;9.00;99.90
11093;DHT22;5600;50.864;6.102;2022-11-20T13:01:35;8.90;99.90
11093;DHT22;5600;50.864;6.102;2022-11-20T13:08:34;9.00;99.90
11093;DHT22;5600;50.864;6.102;2022-11-20T13:11:37;9.10;99.90
11093;DHT22;5600;50.864;6.102;2022-11-20T13:18:04;9.10;99.90
11093;DHT22;5600;50.864;6.102;2022-11-20T13:21:22;9.10;99.90
11093;DHT22;5600;50.864;6.102;2022-11-20T13:24:29;9.20;99.90
11093;DHT22;5600;50.864;6.102;2022-11-20T13:27:30;9.20;99.90
11093;DHT22;5600;50.864;6.102;2022-11-20T13:30:31;9.20;99.90
11093;DHT22;5600;50.864;6.102;2022-11-20T13:33:34;9.20;99.90
11093;DHT22;5600;50.864;6.102;2022-11-20T13:36:36;9.30;99.90
11093;DHT22;5600;50.864;6.102;2022-11-20T13:39:37;9.20;99.90
11093;DHT22;5600;50.864;6.102;2022-11-20T13:42:45;9.20;99.90
11093;DHT22;5600;50.864;6.102;2022-11-20T13:46:00;9.10;99.90
11093;DHT22;5600;50.864;6.102;2022-11-20T13:49:07;9.00;99.90
11093;DHT22;5600;50.864;6.102;2022-11-20T13:55:54;8.90;99.90
11093;DHT22;5600;50.864;6.102;2022-11-20T14:02:36;9.00;99.90
11093;DHT22;5600;50.864;6.102;2022-11-20T14:05:40;8.90;99.90
11093;DHT22;5600;50.864;6.102;2022-11-20T14:08:49;8.80;99.90
11093;DHT22;5600;50.864;6.102;2022-11-20T14:11:51;8.80;99.90
11093;DHT22;5600;50.864;6.102;2022-11-20T14:14:52;8.90;99.90
11093;DHT22;5600;50.864;6.102;2022-11-20T14:17:54;8.80;99.90
11093;DHT22;5600;50.864;6.102;2022-11-20T14:20:55;8.80;99.90
11093;DHT22;5600;50.864;6.102;2022-11-20T14:24:06;8.80;99.90
11093;DHT22;5600;50.864;6.102;2022-11-20T14:27:19;8.60;99.90
11093;DHT22;5600;50.864;6.102;2022-11-20T14:30:23;8.50;99.90
11093;DHT22;5600;50.864;6.102;2022-11-20T14:33:26;8.30;99.90
11093;DHT22;5600;50.864;6.102;2022-11-20T14:36:27;8.10;99.90
11093;DHT22;5600;50.864;6.102;2022-11-20T14:39:36;7.80;99.90
11093;DHT22;5600;50.864;6.102;2022-11-20T14:42:37;7.60;99.90
11093;DHT22;5600;50.864;6.102;2022-11-20T14:45:47;7.40;99.90
11093;DHT22;5600;50.864;6.102;2022-11-20T14:48:50;7.30;99.90
11093;DHT22;5600;50.864;6.102;2022-11-20T14:52:02;7.10;99.90
11093;DHT22;5600;50.864;6.102;2022-11-20T14:55:03;7.00;99.90
11093;DHT22;5600;50.864;6.102;2022-11-20T14:58:06;6.90;99.90
11093;DHT22;5600;50.864;6.102;2022-11-20T15:01:25;6.90;99.90
11093;DHT22;5600;50.864;6.102;2022-11-20T15:04:27;6.80;99.90
11093;DHT22;5600;50.864;6.102;2022-11-20T15:07:31;6.70;99.90
11093;DHT22;5600;50.864;6.102;2022-11-20T15:10:32;6.70;99.90
11093;DHT22;5600;50.864;6.102;2022-11-20T15:13:36;6.60;99.90
11093;DHT22;5600;50.864;6.102;2022-11-20T15:16:37;6.60;99.90
11093;DHT22;5600;50.864;6.102;2022-11-20T15:19:39;6.50;99.90
11093;DHT22;5600;50.864;6.102;2022-11-20T15:22:40;6.50;99.90
11093;DHT22;5600;50.864;6.102;2022-11-20T15:25:41;6.50;99.90
11093;DHT22;5600;50.864;6.102;2022-11-20T15:28:44;6.50;99.90
11093;DHT22;5600;50.864;6.102;2022-11-20T15:31:45;6.50;99.90
11093;DHT22;5600;50.864;6.102;2022-11-20T15:34:45;6.40;99.90
11093;DHT22;5600;50.864;6.102;2022-11-20T15:37:46;6.50;99.90
11093;DHT22;5600;50.864;6.102;2022-11-20T15:40:47;6.40;99.90
11093;DHT22;5600;50.864;6.102;2022-11-20T15:43:47;6.40;99.90
11093;DHT22;5600;50.864;6.102;2022-11-20T15:46:48;6.40;99.90
11093;DHT22;5600;50.864;6.102;2022-11-20T15:49:49;6.40;99.90
11093;DHT22;5600;50.864;6.102;2022-11-20T15:52:49;6.40;99.90
11093;DHT22;5600;50.864;6.102;2022-11-20T15:55:51;6.50;99.90
11093;DHT22;5600;50.864;6.102;2022-11-20T15:58:51;6.50;99.90
11093;DHT22;5600;50.864;6.102;2022-11-20T16:01:52;6.50;99.90
11093;DHT22;5600;50.864;6.102;2022-11-20T16:04:53;6.50;99.90
11093;DHT22;5600;50.864;6.102;2022-11-20T16:07:54;6.50;99.90
11093;DHT22;5600;50.864;6.102;2022-11-20T16:10:54;6.50;99.90
11093;DHT22;5600;50.864;6.102;2022-11-20T16:13:55;6.50;99.90
11093;DHT22;5600;50.864;6.102;2022-11-20T16:17:14;6.40;99.90
11093;DHT22;5600;50.864;6.102;2022-11-20T16:20:15;6.50;99.90
11093;DHT22;5600;50.864;6.102;2022-11-20T16:23:16;6.50;99.90
11093;DHT22;5600;50.864;6.102;2022-11-20T16:26:17;6.60;99.90
11093;DHT22;5600;50.864;6.102;2022-11-20T16:29:19;6.60;99.90
11093;DHT22;5600;50.864;6.102;2022-11-20T16:32:19;6.60;99.90
11093;DHT22;5600;50.864;6.102;2022-11-20T16:35:20;6.60;99.90
11093;DHT22;5600;50.864;6.102;2022-11-20T16:38:21;6.70;99.90
11093;DHT22;5600;50.864;6.102;2022-11-20T16:41:22;6.80;99.90
11093;DHT22;5600;50.864;6.102;2022-11-20T16:44:23;6.90;99.90
11093;DHT22;5600;50.864;6.102;2022-11-20T16:47:23;7.00;99.90
11093;DHT22;5600;50.864;6.102;2022-11-20T16:50:25;7.00;99.90
11093;DHT22;5600;50.864;6.102;2022-11-20T16:53:25;7.10;99.90
11093;DHT22;5600;50.864;6.102;2022-11-20T16:56:26;7.10;99.90
11093;DHT22;5600;50.864;6.102;2022-11-20T16:59:27;7.10;99.90
11093;DHT22;5600;50.864;6.102;2022-11-20T17:02:27;7.10;99.90
11093;DHT22;5600;50.864;6.102;2022-11-20T17:05:29;7.10;99.90
11093;DHT22;5600;50.864;6.102;2022-11-20T17:08:30;7.20;99.90
11093;DHT22;5600;50.864;6.102;2022-11-20T17:11:30;7.20;99.90
11093;DHT22;5600;50.864;6.102;2022-11-20T17:14:32;7.30;99.90
11093;DHT22;5600;50.864;6.102;2022-11-20T17:17:33;7.40;99.90
11093;DHT22;5600;50.864;6.102;2022-11-20T17:20:34;7.40;99.90
11093;DHT22;5600;50.864;6.102;2022-11-20T17:23:36;7.50;99.90
11093;DHT22;5600;50.864;6.102;2022-11-20T17:26:39;7.50;99.90
11093;DHT22;5600;50.864;6.102;2022-11-20T17:29:40;7.50;99.90
11093;DHT22;5600;50.864;6.102;2022-11-20T17:32:41;7.60;99.90
11093;DHT22;5600;50.864;6.102;2022-11-20T17:35:47;7.70;99.90
11093;DHT22;5600;50.864;6.102;2022-11-20T17:38:48;7.60;99.90
11093;DHT22;5600;50.864;6.102;2022-11-20T17:41:48;7.60;99.90
11093;DHT22;5600;50.864;6.102;2022-11-20T17:45:09;7.70;99.90
11093;DHT22;5600;50.864;6.102;2022-11-20T17:48:10;7.70;99.90
11093;DHT22;5600;50.864;6.102;2022-11-20T17:51:13;7.80;99.90
11093;DHT22;5600;50.864;6.102;2022-11-20T17:54:14;7.80;99.90
11093;DHT22;5600;50.864;6.102;2022-11-20T17:57:15;7.80;99.90
11093;DHT22;5600;50.864;6.102;2022-11-20T18:00:34;7.80;99.90
11093;DHT22;5600;50.864;6.102;2022-11-20T18:03:34;7.80;99.90
11093;DHT22;5600;50.864;6.102;2022-11-20T18:06:35;7.80;99.90
11093;DHT22;5600;50.864;6.102;2022-11-20T18:09:36;7.80;99.90
11093;DHT22;5600;50.864;6.102;2022-11-20T18:12:37;7.80;99.90
11093;DHT22;5600;50.864;6.102;2022-11-20T18:15:37;7.90;99.90
11093;DHT22;5600;50.864;6.102;2022-11-20T18:18:38;7.90;99.90
11093;DHT22;5600;50.864;6.102;2022-11-20T18:21:39;7.90;99.90
11093;DHT22;5600;50.864;6.102;2022-11-20T18:24:40;7.90;99.90
11093;DHT22;5600;50.864;6.102;2022-11-20T18:27:41;8.00;99.90
11093;DHT22;5600;50.864;6.102;2022-11-20T18:30:42;8.00;99.90
11093;DHT22;5600;50.864;6.102;2022-11-20T18:33:42;8.10;99.90
11093;DHT22;5600;50.864;6.102;2022-11-20T18:36:43;8.10;99.90
11093;DHT22;5600;50.864;6.102;2022-11-20T18:39:44;8.10;99.90
11093;DHT22;5600;50.864;6.102;2022-11-20T18:42:45;8.10;99.90
11093;DHT22;5600;50.864;6.102;2022-11-20T18:46:04;8.10;99.90
11093;DHT22;5600;50.864;6.102;2022-11-20T18:49:05;8.10;99.90
11093;DHT22;5600;50.864;6.102;2022-11-20T18:52:06;8.10;99.90
11093;DHT22;5600;50.864;6.102;2022-11-20T18:55:07;8.10;99.90
11093;DHT22;5600;50.864;6.102;2022-11-20T18:58:08;8.10;99.90
11093;DHT22;5600;50.864;6.102;2022-11-20T19:01:09;8.10;99.90
11093;DHT22;5600;50.864;6.102;2022-11-20T19:04:12;8.00;99.90
11093;DHT22;5600;50.864;6.102;2022-11-20T19:07:13;8.10;99.90
11093;DHT22;5600;50.864;6.102;2022-11-20T19:10:17;8.00;99.90
11093;DHT22;5600;50.864;6.102;2022-11-20T19:13:19;8.00;99.90
11093;DHT22;5600;50.864;6.102;2022-11-20T19:16:20;8.00;99.90
11093;DHT22;5600;50.864;6.102;2022-11-20T19:19:23;8.10;99.90
11093;DHT22;5600;50.864;6.102;2022-11-20T19:22:24;8.10;99.90
11093;DHT22;5600;50.864;6.102;2022-11-20T19:25:24;8.10;99.90
11093;DHT22;5600;50.864;6.102;2022-11-20T19:28:25;8.10;99.90
11093;DHT22;5600;50.864;6.102;2022-11-20T19:31:26;8.10;99.90
11093;DHT22;5600;50.864;6.102;2022-11-20T19:34:27;8.00;99.90
11093;DHT22;5600;50.864;6.102;2022-11-20T19:37:27;7.90;99.90
11093;DHT22;5600;50.864;6.102;2022-11-20T19:40:28;7.90;99.90
11093;DHT22;5600;50.864;6.102;2022-11-20T19:43:28;7.80;99.90
11093;DHT22;5600;50.864;6.102;2022-11-20T19:46:31;7.70;99.90
11093;DHT22;5600;50.864;6.102;2022-11-20T19:49:31;7.70;99.90
11093;DHT22;5600;50.864;6.102;2022-11-20T19:52:32;7.70;99.90
11093;DHT22;5600;50.864;6.102;2022-11-20T19:55:33;7.60;99.90
11093;DHT22;5600;50.864;6.102;2022-11-20T19:58:34;7.60;99.90
11093;DHT22;5600;50.864;6.102;2022-11-20T20:01:35;7.60;99.90
11093;DHT22;5600;50.864;6.102;2022-11-20T20:04:36;7.50;99.90
11093;DHT22;5600;50.864;6.102;2022-11-20T20:07:36;7.50;99.90
11093;DHT22;5600;50.864;6.102;2022-11-20T20:10:39;7.40;99.90
11093;DHT22;5600;50.864;6.102;2022-11-20T20:13:40;7.30;99.90
11093;DHT22;5600;50.864;6.102;2022-11-20T20:16:41;7.20;99.90
11093;DHT22;5600;50.864;6.102;2022-11-20T20:19:42;7.10;99.90
11093;DHT22;5600;50.864;6.102;2022-11-20T20:22:43;7.00;99.90
11093;DHT22;5600;50.864;6.102;2022-11-20T20:25:46;7.00;99.90
11093;DHT22;5600;50.864;6.102;2022-11-20T20:28:47;6.90;99.90
11093;DHT22;5600;50.864;6.102;2022-11-20T20:31:48;6.90;99.90
11093;DHT22;5600;50.864;6.102;2022-11-20T20:34:48;6.90;99.90
11093;DHT22;5600;50.864;6.102;2022-11-20T20:37:49;6.80;99.90
11093;DHT22;5600;50.864;6.102;2022-11-20T20:40:50;6.90;99.90
11093;DHT22;5600;50.864;6.102;2022-11-20T20:43:51;6.80;99.90
11093;DHT22;5600;50.864;6.102;2022-11-20T20:47:10;6.80;99.90
11093;DHT22;5600;50.864;6.102;2022-11-20T20:50:11;6.80;99.90
11093;DHT22;5600;50.864;6.102;2022-11-20T20:53:12;6.90;99.90
11093;DHT22;5600;50.864;6.102;2022-11-20T20:56:13;6.80;99.90
11093;DHT22;5600;50.864;6.102;2022-11-20T20:59:14;6.90;99.90
11093;DHT22;5600;50.864;6.102;2022-11-20T21:02:14;6.90;99.90
11093;DHT22;5600;50.864;6.102;2022-11-20T21:05:15;6.90;99.90